createdAt,value
2023-05-05T00:04:35.183Z,3.60
2023-05-05T00:09:36.882Z,4.00
2023-05-05T00:14:38.621Z,3.67
2023-05-05T00:19:41.650Z,3.80
2023-05-05T00:24:43.320Z,3.80
2023-05-05T00:29:45.151Z,3.60
2023-05-05T00:34:46.834Z,3.57
2023-05-05T00:39:48.616Z,3.43
2023-05-05T00:44:50.823Z,3.90
2023-05-05T00:49:52.629Z,3.70
2023-05-05T00:54:54.686Z,3.70
2023-05-05T00:59:56.467Z,3.60
2023-05-05T01:04:58.495Z,3.77
2023-05-05T01:10:19.886Z,3.80
2023-05-05T01:15:57.371Z,3.60
2023-05-05T01:21:13.450Z,3.77
2023-05-05T01:26:37.547Z,4.17
2023-05-05T01:31:52.185Z,4.23
2023-05-05T01:37:16.548Z,4.13
2023-05-05T01:42:20.331Z,4.20
2023-05-05T01:47:24.105Z,3.60
2023-05-05T01:52:27.917Z,3.70
2023-05-05T01:57:31.871Z,3.43
2023-05-05T02:02:36.104Z,3.97
2023-05-05T02:07:38.405Z,3.77
2023-05-05T02:12:42.701Z,3.90
2023-05-05T02:17:46.285Z,3.40
2023-05-05T02:22:48.461Z,3.77
2023-05-05T02:27:53.184Z,4.13
2023-05-05T02:33:00.018Z,3.73
2023-05-05T02:38:05.516Z,3.57
2023-05-05T02:43:11.372Z,3.53
2023-05-05T02:48:13.493Z,3.60
2023-05-05T02:53:15.365Z,3.60
2023-05-05T02:58:42.599Z,4.30
2023-05-05T03:04:12.962Z,3.67
2023-05-05T03:09:39.308Z,4.53
2023-05-05T03:14:43.329Z,4.43
2023-05-05T03:19:46.126Z,4.30
2023-05-05T03:24:51.635Z,4.60
2023-05-05T03:29:53.431Z,3.73
2023-05-05T03:34:55.119Z,3.80
2023-05-05T03:39:56.852Z,4.70
2023-05-05T03:44:58.568Z,4.77
2023-05-05T03:50:00.942Z,4.40
2023-05-05T03:55:02.698Z,5.00
2023-05-05T04:00:05.053Z,5.00
2023-05-05T04:05:07.082Z,5.00
2023-05-05T04:10:09.409Z,4.77
2023-05-05T04:15:11.462Z,5.00
2023-05-05T04:20:13.285Z,4.90
2023-05-05T04:25:15.034Z,5.40
2023-05-05T04:30:17.139Z,5.50
2023-05-05T04:35:19.182Z,4.90
2023-05-05T04:40:21.440Z,5.10
2023-05-05T04:45:23.180Z,5.60
2023-05-05T04:50:24.930Z,5.33
2023-05-05T04:55:26.686Z,6.03
2023-05-05T05:00:28.375Z,5.90
2023-05-05T05:05:30.386Z,6.77
2023-05-05T05:10:32.096Z,7.00
2023-05-05T05:15:33.876Z,7.07
2023-05-05T05:20:35.686Z,6.83
2023-05-05T05:25:37.400Z,7.00
2023-05-05T05:30:39.114Z,7.30
2023-05-05T05:35:40.865Z,7.10
2023-05-05T05:40:42.689Z,7.47
2023-05-05T05:45:44.509Z,7.17
2023-05-05T05:50:47.304Z,7.10
2023-05-05T05:55:49.494Z,6.70
2023-05-05T06:00:51.313Z,6.60
2023-05-05T06:05:53.049Z,6.60
2023-05-05T06:10:54.798Z,6.27
2023-05-05T06:15:56.632Z,6.43
2023-05-05T06:20:58.438Z,6.77
2023-05-05T06:26:00.163Z,6.77
2023-05-05T06:31:01.932Z,6.73
2023-05-05T06:36:03.999Z,6.23
2023-05-05T06:41:05.781Z,6.20
2023-05-05T06:46:07.498Z,5.87
2023-05-05T06:51:09.775Z,5.93
2023-05-05T06:56:11.656Z,6.87
2023-05-05T07:01:13.393Z,7.23
2023-05-05T07:06:15.201Z,6.60
2023-05-05T07:11:16.894Z,6.77
2023-05-05T07:16:18.732Z,7.33
2023-05-05T07:21:20.455Z,7.80
2023-05-05T07:26:22.231Z,8.00
2023-05-05T07:31:24.412Z,7.73
2023-05-05T07:36:27.930Z,7.97
2023-05-05T07:41:29.669Z,7.93
2023-05-05T07:46:31.500Z,7.20
2023-05-05T07:51:34.585Z,7.57
2023-05-05T07:56:36.809Z,7.47
2023-05-05T08:01:39.674Z,7.37
2023-05-05T08:06:41.378Z,7.33
2023-05-05T08:11:43.124Z,7.40
2023-05-05T08:16:44.865Z,7.27
2023-05-05T08:21:46.793Z,6.97
2023-05-05T08:26:49.158Z,6.27
2023-05-05T08:31:50.983Z,6.93
2023-05-05T08:36:52.754Z,6.07
2023-05-05T08:41:54.678Z,4.80
2023-05-05T08:46:57.457Z,5.23
2023-05-05T08:52:04.155Z,5.70
2023-05-05T08:57:10.495Z,5.37
2023-05-05T09:02:13.914Z,5.20
2023-05-05T09:07:15.914Z,5.33
2023-05-05T09:12:18.618Z,5.23
2023-05-05T09:17:25.205Z,5.00
2023-05-05T09:22:42.709Z,4.50
2023-05-05T09:27:48.562Z,4.23
2023-05-05T09:32:53.033Z,4.10
2023-05-05T09:37:55.200Z,4.50
2023-05-05T09:43:02.257Z,4.33
2023-05-05T09:48:06.410Z,4.27
2023-05-05T09:53:08.415Z,4.50
2023-05-05T09:58:20.786Z,4.20
2023-05-05T10:03:22.934Z,3.80
2023-05-05T10:08:30.653Z,4.13
2023-05-05T10:13:37.149Z,4.13
2023-05-05T10:18:43.562Z,3.80
2023-05-05T10:23:52.931Z,3.90
2023-05-05T10:29:03.155Z,3.50
2023-05-05T10:34:09.017Z,3.63
2023-05-05T10:39:11.940Z,3.87
2023-05-05T10:44:14.866Z,3.77
2023-05-05T10:49:33.346Z,3.97
2023-05-05T10:54:38.634Z,3.50
2023-05-05T10:59:41.575Z,3.70
2023-05-05T11:04:43.507Z,4.00
2023-05-05T11:09:59.180Z,3.83
2023-05-05T11:15:31.827Z,3.70
2023-05-05T11:20:37.034Z,4.00
2023-05-05T11:25:42.182Z,3.87
2023-05-05T11:30:56.893Z,3.70
2023-05-05T11:36:09.942Z,3.60
2023-05-05T11:41:28.457Z,3.30
2023-05-05T11:46:30.241Z,3.53
2023-05-05T11:51:32.321Z,3.38
2023-05-05T11:56:34.089Z,3.33
2023-05-05T12:01:42.503Z,3.30
2023-05-05T12:06:46.157Z,2.70
2023-05-05T12:11:56.736Z,2.90
2023-05-05T12:17:07.444Z,3.20
2023-05-05T12:22:09.371Z,2.70
2023-05-05T12:27:12.142Z,3.10
2023-05-05T12:32:28.160Z,3.25
2023-05-05T12:37:30.250Z,3.25
2023-05-05T12:42:32.864Z,3.20
2023-05-05T12:47:36.693Z,3.38
2023-05-05T12:52:45.523Z,3.38
2023-05-05T12:58:01.448Z,3.03
2023-05-05T13:03:03.534Z,3.60
2023-05-05T13:08:05.399Z,3.50
2023-05-05T13:13:08.786Z,3.10
2023-05-05T13:18:10.835Z,3.10
2023-05-05T13:23:12.567Z,3.08
2023-05-05T13:28:14.262Z,3.40
2023-05-05T13:33:15.929Z,3.22
2023-05-05T13:38:17.659Z,3.00
2023-05-05T13:43:19.759Z,3.58
2023-05-05T13:48:22.280Z,3.55
2023-05-05T13:53:24.003Z,3.40
2023-05-05T13:58:25.933Z,3.50
2023-05-05T14:03:27.737Z,3.53
2023-05-05T14:08:29.486Z,3.10
2023-05-05T14:13:31.332Z,3.40
2023-05-05T14:18:33.052Z,3.53
2023-05-05T14:23:34.740Z,3.87
2023-05-05T14:28:36.453Z,3.30
2023-05-05T14:33:38.209Z,3.40
2023-05-05T14:38:40.272Z,3.50
2023-05-05T14:43:42.097Z,4.13
2023-05-05T14:48:43.924Z,5.60
2023-05-05T14:53:45.818Z,6.83
2023-05-05T14:58:49.327Z,6.40
2023-05-05T15:03:52.763Z,5.03
2023-05-05T15:08:54.607Z,4.07
2023-05-05T15:13:56.349Z,4.50
2023-05-05T15:18:58.130Z,4.30
2023-05-05T15:23:59.902Z,4.40
2023-05-05T15:29:01.616Z,3.80
2023-05-05T15:34:03.339Z,3.77
2023-05-05T15:39:05.154Z,3.93
2023-05-05T15:44:07.259Z,4.07
2023-05-05T15:49:08.998Z,4.30
2023-05-05T15:54:10.701Z,3.97
2023-05-05T15:59:12.455Z,3.70
2023-05-05T16:04:14.446Z,3.90
2023-05-05T16:09:16.235Z,3.70
2023-05-05T16:14:18.001Z,3.77
2023-05-05T16:19:19.847Z,3.23
2023-05-05T16:24:21.617Z,3.63
2023-05-05T16:29:23.340Z,3.47
2023-05-05T16:34:25.053Z,3.10
2023-05-05T16:39:26.815Z,3.53
2023-05-05T16:44:28.538Z,3.47
2023-05-05T16:49:30.387Z,3.53
2023-05-05T16:54:32.107Z,2.97
2023-05-05T16:59:34.108Z,3.13
2023-05-05T17:04:35.858Z,3.37
2023-05-05T17:09:37.731Z,4.07
2023-05-05T17:14:39.716Z,3.70
2023-05-05T17:19:42.754Z,4.00
2023-05-05T17:24:44.496Z,3.47
2023-05-05T17:29:46.241Z,3.40
2023-05-05T17:34:48.346Z,3.30
2023-05-05T17:39:50.138Z,3.20
2023-05-05T17:44:51.857Z,3.20
2023-05-05T17:49:54.987Z,3.00
2023-05-05T17:54:56.958Z,2.80
2023-05-05T17:59:58.691Z,3.40
2023-05-05T18:05:00.736Z,4.13
2023-05-05T18:10:02.511Z,3.33
2023-05-05T18:15:05.555Z,3.63
2023-05-05T18:20:07.828Z,3.73
2023-05-05T18:25:10.253Z,3.90
2023-05-05T18:30:12.458Z,3.73
2023-05-05T18:35:14.197Z,3.87
2023-05-05T18:40:16.177Z,3.60
2023-05-05T18:45:18.041Z,3.77
2023-05-05T18:50:20.000Z,4.77
2023-05-05T18:55:21.870Z,4.70
2023-05-05T19:00:23.753Z,4.70
2023-05-05T19:05:26.633Z,4.63
2023-05-05T19:10:28.473Z,4.57
2023-05-05T19:15:30.406Z,4.37
2023-05-05T19:20:32.616Z,4.70
2023-05-05T19:25:34.732Z,4.57
2023-05-05T19:30:36.737Z,4.20
2023-05-05T19:35:38.468Z,4.47
2023-05-05T19:40:40.297Z,4.87
2023-05-05T19:45:42.070Z,4.57
2023-05-05T19:50:43.917Z,4.40
2023-05-05T19:55:46.117Z,4.20
2023-05-05T20:00:47.834Z,4.73
2023-05-05T20:05:49.604Z,4.43
2023-05-05T20:10:51.373Z,5.00
2023-05-05T20:15:53.175Z,4.30
2023-05-05T20:20:54.901Z,4.90
2023-05-05T20:25:56.786Z,5.37
2023-05-05T20:30:58.634Z,5.03
2023-05-05T20:36:00.495Z,4.90
2023-05-05T20:41:02.389Z,4.83
2023-05-05T20:46:04.269Z,4.80
2023-05-05T20:51:06.534Z,5.00
2023-05-05T20:56:09.076Z,6.10
2023-05-05T21:01:11.974Z,4.43
2023-05-05T21:06:13.694Z,4.60
2023-05-05T21:11:15.451Z,5.40
2023-05-05T21:16:17.207Z,4.90
2023-05-05T21:21:18.950Z,5.00
2023-05-05T21:26:21.121Z,4.53
2023-05-05T21:31:22.911Z,5.30
2023-05-05T21:36:24.836Z,4.70
2023-05-05T21:41:26.977Z,5.20
2023-05-05T21:46:28.857Z,5.33
2023-05-05T21:51:31.292Z,6.03
2023-05-05T21:56:37.044Z,5.30
2023-05-05T22:01:38.797Z,5.40
2023-05-05T22:06:40.755Z,5.37
2023-05-05T22:11:42.440Z,5.43
2023-05-05T22:16:44.312Z,4.93
2023-05-05T22:21:46.074Z,6.30
2023-05-05T22:26:47.794Z,5.03
2023-05-05T22:31:49.585Z,5.40
2023-05-05T22:36:51.330Z,5.63
2023-05-05T22:41:53.055Z,5.60
2023-05-05T22:46:54.922Z,5.20
2023-05-05T22:51:57.237Z,5.10
2023-05-05T22:56:58.986Z,4.63
2023-05-05T23:02:00.764Z,5.97
2023-05-05T23:07:02.529Z,6.77
2023-05-05T23:12:04.380Z,5.80
2023-05-05T23:17:06.382Z,6.03
2023-05-05T23:22:08.180Z,6.40
2023-05-05T23:27:09.924Z,5.53
2023-05-05T23:32:11.693Z,6.40
2023-05-05T23:37:14.295Z,5.20
2023-05-05T23:42:16.027Z,5.53
2023-05-05T23:47:17.876Z,5.90
2023-05-05T23:52:19.592Z,5.60
2023-05-05T23:57:21.528Z,5.77
